sensor_id;sensor_type;location;lat;lon;timestamp;P1;durP1;ratioP1;P2;durP2;ratioP2
32399;SDS011;45045;45.440;9.178;2023-09-08T00:00:55;9.48;;;6.45;;
32399;SDS011;45045;45.440;9.178;2023-09-08T00:03:21;12.75;;;6.03;;
32399;SDS011;45045;45.440;9.178;2023-09-08T00:05:46;12.55;;;6.13;;
32399;SDS011;45045;45.440;9.178;2023-09-08T00:08:12;13.70;;;6.28;;
32399;SDS011;45045;45.440;9.178;2023-09-08T00:10:38;10.20;;;5.78;;
32399;SDS011;45045;45.440;9.178;2023-09-08T00:13:03;9.70;;;5.88;;
32399;SDS011;45045;45.440;9.178;2023-09-08T00:15:29;8.45;;;5.50;;
32399;SDS011;45045;45.440;9.178;2023-09-08T00:17:55;12.18;;;6.57;;
32399;SDS011;45045;45.440;9.178;2023-09-08T00:20:22;13.50;;;7.25;;
32399;SDS011;45045;45.440;9.178;2023-09-08T00:22:48;10.75;;;6.28;;
32399;SDS011;45045;45.440;9.178;2023-09-08T00:25:13;8.73;;;6.00;;
32399;SDS011;45045;45.440;9.178;2023-09-08T00:27:39;9.45;;;5.80;;
32399;SDS011;45045;45.440;9.178;2023-09-08T00:30:05;11.25;;;5.80;;
32399;SDS011;45045;45.440;9.178;2023-09-08T00:32:31;9.55;;;5.40;;
32399;SDS011;45045;45.440;9.178;2023-09-08T00:34:57;11.00;;;5.55;;
32399;SDS011;45045;45.440;9.178;2023-09-08T00:37:22;11.88;;;5.75;;
32399;SDS011;45045;45.440;9.178;2023-09-08T00:39:49;9.07;;;5.35;;
32399;SDS011;45045;45.440;9.178;2023-09-08T00:42:14;8.52;;;5.47;;
32399;SDS011;45045;45.440;9.178;2023-09-08T00:44:40;10.75;;;5.70;;
32399;SDS011;45045;45.440;9.178;2023-09-08T00:47:06;9.15;;;5.43;;
32399;SDS011;45045;45.440;9.178;2023-09-08T00:49:31;9.63;;;4.95;;
32399;SDS011;45045;45.440;9.178;2023-09-08T00:51:57;9.35;;;5.72;;
32399;SDS011;45045;45.440;9.178;2023-09-08T00:54:23;11.23;;;5.07;;
32399;SDS011;45045;45.440;9.178;2023-09-08T00:56:49;11.52;;;4.93;;
32399;SDS011;45045;45.440;9.178;2023-09-08T01:01:46;9.43;;;5.28;;
32399;SDS011;45045;45.440;9.178;2023-09-08T01:04:11;9.60;;;4.90;;
32399;SDS011;45045;45.440;9.178;2023-09-08T01:06:37;9.45;;;4.68;;
32399;SDS011;45045;45.440;9.178;2023-09-08T01:09:03;9.38;;;4.65;;
32399;SDS011;45045;45.440;9.178;2023-09-08T01:11:30;8.80;;;5.00;;
32399;SDS011;45045;45.440;9.178;2023-09-08T01:13:56;10.32;;;5.55;;
32399;SDS011;45045;45.440;9.178;2023-09-08T01:16:21;11.07;;;5.32;;
32399;SDS011;45045;45.440;9.178;2023-09-08T01:18:47;13.70;;;6.22;;
32399;SDS011;45045;45.440;9.178;2023-09-08T01:26:20;10.48;;;6.18;;
32399;SDS011;45045;45.440;9.178;2023-09-08T01:28:49;8.70;;;6.15;;
32399;SDS011;45045;45.440;9.178;2023-09-08T01:31:16;10.18;;;6.65;;
32399;SDS011;45045;45.440;9.178;2023-09-08T01:33:42;10.35;;;6.47;;
32399;SDS011;45045;45.440;9.178;2023-09-08T01:36:09;13.23;;;7.55;;
32399;SDS011;45045;45.440;9.178;2023-09-08T01:38:35;13.00;;;7.07;;
32399;SDS011;45045;45.440;9.178;2023-09-08T01:41:00;12.95;;;7.65;;
32399;SDS011;45045;45.440;9.178;2023-09-08T01:43:27;10.23;;;7.85;;
32399;SDS011;45045;45.440;9.178;2023-09-08T01:45:52;13.60;;;7.78;;
32399;SDS011;45045;45.440;9.178;2023-09-08T01:48:18;10.93;;;7.60;;
32399;SDS011;45045;45.440;9.178;2023-09-08T01:50:44;11.13;;;8.88;;
32399;SDS011;45045;45.440;9.178;2023-09-08T01:53:10;14.18;;;8.57;;
32399;SDS011;45045;45.440;9.178;2023-09-08T01:55:35;14.15;;;8.60;;
32399;SDS011;45045;45.440;9.178;2023-09-08T01:58:01;13.88;;;9.15;;
32399;SDS011;45045;45.440;9.178;2023-09-08T02:00:26;14.45;;;8.73;;
32399;SDS011;45045;45.440;9.178;2023-09-08T02:02:52;14.40;;;9.07;;
32399;SDS011;45045;45.440;9.178;2023-09-08T02:05:18;11.27;;;8.48;;
32399;SDS011;45045;45.440;9.178;2023-09-08T02:07:43;15.95;;;9.18;;
32399;SDS011;45045;45.440;9.178;2023-09-08T02:10:09;13.27;;;8.77;;
32399;SDS011;45045;45.440;9.178;2023-09-08T02:12:35;18.10;;;9.13;;
32399;SDS011;45045;45.440;9.178;2023-09-08T02:15:01;11.68;;;8.18;;
32399;SDS011;45045;45.440;9.178;2023-09-08T02:17:28;14.90;;;8.82;;
32399;SDS011;45045;45.440;9.178;2023-09-08T02:19:54;14.10;;;9.25;;
32399;SDS011;45045;45.440;9.178;2023-09-08T02:22:20;13.45;;;8.40;;
32399;SDS011;45045;45.440;9.178;2023-09-08T02:24:45;13.02;;;8.30;;
32399;SDS011;45045;45.440;9.178;2023-09-08T02:27:11;11.88;;;8.18;;
32399;SDS011;45045;45.440;9.178;2023-09-08T02:29:36;10.95;;;8.32;;
32399;SDS011;45045;45.440;9.178;2023-09-08T02:32:02;11.57;;;8.55;;
32399;SDS011;45045;45.440;9.178;2023-09-08T02:34:28;15.20;;;7.40;;
32399;SDS011;45045;45.440;9.178;2023-09-08T02:36:54;13.68;;;8.77;;
32399;SDS011;45045;45.440;9.178;2023-09-08T02:39:19;12.80;;;8.50;;
32399;SDS011;45045;45.440;9.178;2023-09-08T02:41:45;15.88;;;8.48;;
32399;SDS011;45045;45.440;9.178;2023-09-08T02:44:10;14.80;;;8.50;;
32399;SDS011;45045;45.440;9.178;2023-09-08T02:46:36;9.45;;;7.53;;
32399;SDS011;45045;45.440;9.178;2023-09-08T02:49:02;11.10;;;7.50;;
32399;SDS011;45045;45.440;9.178;2023-09-08T02:51:27;12.65;;;8.18;;
32399;SDS011;45045;45.440;9.178;2023-09-08T02:53:53;12.43;;;7.95;;
32399;SDS011;45045;45.440;9.178;2023-09-08T02:56:19;11.02;;;7.72;;
32399;SDS011;45045;45.440;9.178;2023-09-08T02:58:44;13.68;;;8.20;;
32399;SDS011;45045;45.440;9.178;2023-09-08T03:01:13;9.70;;;7.60;;
32399;SDS011;45045;45.440;9.178;2023-09-08T03:03:40;11.27;;;7.78;;
32399;SDS011;45045;45.440;9.178;2023-09-08T03:06:07;15.35;;;8.18;;
32399;SDS011;45045;45.440;9.178;2023-09-08T03:08:33;11.27;;;7.50;;
32399;SDS011;45045;45.440;9.178;2023-09-08T03:11:01;11.35;;;8.07;;
32399;SDS011;45045;45.440;9.178;2023-09-08T03:13:28;10.52;;;7.88;;
32399;SDS011;45045;45.440;9.178;2023-09-08T03:15:54;11.48;;;7.50;;
32399;SDS011;45045;45.440;9.178;2023-09-08T03:18:21;14.18;;;7.65;;
32399;SDS011;45045;45.440;9.178;2023-09-08T03:20:50;13.38;;;7.97;;
32399;SDS011;45045;45.440;9.178;2023-09-08T03:23:16;13.70;;;8.32;;
32399;SDS011;45045;45.440;9.178;2023-09-08T03:25:42;13.05;;;7.43;;
32399;SDS011;45045;45.440;9.178;2023-09-08T03:28:08;14.48;;;8.35;;
32399;SDS011;45045;45.440;9.178;2023-09-08T03:30:34;11.57;;;8.25;;
32399;SDS011;45045;45.440;9.178;2023-09-08T03:33:00;13.38;;;8.23;;
32399;SDS011;45045;45.440;9.178;2023-09-08T03:35:25;13.27;;;9.25;;
32399;SDS011;45045;45.440;9.178;2023-09-08T03:37:51;11.88;;;8.60;;
32399;SDS011;45045;45.440;9.178;2023-09-08T03:40:16;13.60;;;9.32;;
32399;SDS011;45045;45.440;9.178;2023-09-08T03:42:42;12.48;;;8.38;;
32399;SDS011;45045;45.440;9.178;2023-09-08T03:45:08;13.65;;;8.65;;
32399;SDS011;45045;45.440;9.178;2023-09-08T03:47:33;12.73;;;8.85;;
32399;SDS011;45045;45.440;9.178;2023-09-08T03:49:59;13.10;;;8.82;;
32399;SDS011;45045;45.440;9.178;2023-09-08T03:52:25;14.13;;;9.48;;
32399;SDS011;45045;45.440;9.178;2023-09-08T03:54:51;14.48;;;8.45;;
32399;SDS011;45045;45.440;9.178;2023-09-08T03:57:16;13.77;;;8.57;;
32399;SDS011;45045;45.440;9.178;2023-09-08T03:59:42;12.43;;;7.95;;
32399;SDS011;45045;45.440;9.178;2023-09-08T04:02:08;14.80;;;8.32;;
32399;SDS011;45045;45.440;9.178;2023-09-08T04:04:33;10.20;;;7.63;;
32399;SDS011;45045;45.440;9.178;2023-09-08T04:06:59;13.82;;;8.80;;
32399;SDS011;45045;45.440;9.178;2023-09-08T04:09:25;12.40;;;7.72;;
32399;SDS011;45045;45.440;9.178;2023-09-08T04:11:50;15.45;;;8.63;;
32399;SDS011;45045;45.440;9.178;2023-09-08T04:14:16;15.10;;;8.20;;
32399;SDS011;45045;45.440;9.178;2023-09-08T04:16:42;14.55;;;8.25;;
32399;SDS011;45045;45.440;9.178;2023-09-08T04:19:07;13.85;;;8.80;;
32399;SDS011;45045;45.440;9.178;2023-09-08T04:21:33;10.43;;;8.25;;
32399;SDS011;45045;45.440;9.178;2023-09-08T04:23:59;12.45;;;8.40;;
32399;SDS011;45045;45.440;9.178;2023-09-08T04:26:24;13.38;;;8.70;;
32399;SDS011;45045;45.440;9.178;2023-09-08T04:28:50;13.43;;;8.55;;
32399;SDS011;45045;45.440;9.178;2023-09-08T04:31:15;10.25;;;8.02;;
32399;SDS011;45045;45.440;9.178;2023-09-08T04:33:43;13.50;;;8.48;;
32399;SDS011;45045;45.440;9.178;2023-09-08T04:36:08;12.50;;;8.13;;
32399;SDS011;45045;45.440;9.178;2023-09-08T04:38:36;13.00;;;8.35;;
32399;SDS011;45045;45.440;9.178;2023-09-08T04:41:01;12.80;;;8.73;;
32399;SDS011;45045;45.440;9.178;2023-09-08T04:43:27;12.13;;;8.23;;
32399;SDS011;45045;45.440;9.178;2023-09-08T04:45:52;14.63;;;8.65;;
32399;SDS011;45045;45.440;9.178;2023-09-08T04:48:18;12.93;;;8.27;;
32399;SDS011;45045;45.440;9.178;2023-09-08T04:50:44;13.32;;;8.52;;
32399;SDS011;45045;45.440;9.178;2023-09-08T04:53:09;11.10;;;8.35;;
32399;SDS011;45045;45.440;9.178;2023-09-08T04:55:35;13.82;;;8.98;;
32399;SDS011;45045;45.440;9.178;2023-09-08T04:58:01;15.68;;;8.32;;
32399;SDS011;45045;45.440;9.178;2023-09-08T05:00:26;17.13;;;9.40;;
32399;SDS011;45045;45.440;9.178;2023-09-08T05:02:52;11.07;;;8.32;;
32399;SDS011;45045;45.440;9.178;2023-09-08T05:05:17;13.70;;;9.60;;
32399;SDS011;45045;45.440;9.178;2023-09-08T05:07:43;16.50;;;9.88;;
32399;SDS011;45045;45.440;9.178;2023-09-08T05:10:10;14.48;;;9.43;;
32399;SDS011;45045;45.440;9.178;2023-09-08T05:12:36;19.40;;;9.75;;
32399;SDS011;45045;45.440;9.178;2023-09-08T05:15:01;16.60;;;10.30;;
32399;SDS011;45045;45.440;9.178;2023-09-08T05:17:31;17.38;;;10.18;;
32399;SDS011;45045;45.440;9.178;2023-09-08T05:19:57;16.33;;;10.45;;
32399;SDS011;45045;45.440;9.178;2023-09-08T05:22:23;19.60;;;10.90;;
32399;SDS011;45045;45.440;9.178;2023-09-08T05:24:48;21.88;;;10.75;;
32399;SDS011;45045;45.440;9.178;2023-09-08T05:27:14;14.38;;;10.77;;
32399;SDS011;45045;45.440;9.178;2023-09-08T05:29:40;19.23;;;10.77;;
32399;SDS011;45045;45.440;9.178;2023-09-08T05:32:05;14.38;;;10.88;;
32399;SDS011;45045;45.440;9.178;2023-09-08T05:34:31;18.17;;;11.15;;
32399;SDS011;45045;45.440;9.178;2023-09-08T05:36:57;18.05;;;11.27;;
32399;SDS011;45045;45.440;9.178;2023-09-08T05:39:22;16.92;;;10.82;;
32399;SDS011;45045;45.440;9.178;2023-09-08T05:41:48;18.08;;;10.90;;
32399;SDS011;45045;45.440;9.178;2023-09-08T05:44:13;18.27;;;11.15;;
32399;SDS011;45045;45.440;9.178;2023-09-08T05:46:39;15.65;;;11.98;;
32399;SDS011;45045;45.440;9.178;2023-09-08T05:49:05;18.52;;;11.43;;
32399;SDS011;45045;45.440;9.178;2023-09-08T05:51:31;15.15;;;11.32;;
32399;SDS011;45045;45.440;9.178;2023-09-08T05:53:57;20.83;;;11.98;;
32399;SDS011;45045;45.440;9.178;2023-09-08T05:56:29;19.27;;;11.80;;
32399;SDS011;45045;45.440;9.178;2023-09-08T05:58:56;21.65;;;11.90;;
32399;SDS011;45045;45.440;9.178;2023-09-08T06:01:22;22.63;;;12.02;;
32399;SDS011;45045;45.440;9.178;2023-09-08T06:03:49;18.67;;;12.45;;
32399;SDS011;45045;45.440;9.178;2023-09-08T06:06:14;18.00;;;14.10;;
32399;SDS011;45045;45.440;9.178;2023-09-08T06:08:40;21.10;;;14.55;;
32399;SDS011;45045;45.440;9.178;2023-09-08T06:11:06;23.88;;;15.05;;
32399;SDS011;45045;45.440;9.178;2023-09-08T06:13:31;22.65;;;16.70;;
32399;SDS011;45045;45.440;9.178;2023-09-08T06:15:57;20.60;;;14.32;;
32399;SDS011;45045;45.440;9.178;2023-09-08T06:18:23;20.08;;;14.48;;
32399;SDS011;45045;45.440;9.178;2023-09-08T06:20:48;23.30;;;17.27;;
32399;SDS011;45045;45.440;9.178;2023-09-08T06:23:14;22.23;;;17.20;;
32399;SDS011;45045;45.440;9.178;2023-09-08T06:25:40;21.02;;;16.10;;
32399;SDS011;45045;45.440;9.178;2023-09-08T06:28:06;23.45;;;16.73;;
32399;SDS011;45045;45.440;9.178;2023-09-08T06:30:32;21.05;;;14.48;;
32399;SDS011;45045;45.440;9.178;2023-09-08T06:32:57;24.92;;;15.18;;
32399;SDS011;45045;45.440;9.178;2023-09-08T06:35:23;22.40;;;16.58;;
32399;SDS011;45045;45.440;9.178;2023-09-08T06:37:50;19.55;;;15.60;;
32399;SDS011;45045;45.440;9.178;2023-09-08T06:40:16;20.15;;;15.48;;
32399;SDS011;45045;45.440;9.178;2023-09-08T06:42:41;21.58;;;15.10;;
32399;SDS011;45045;45.440;9.178;2023-09-08T06:45:07;21.13;;;15.40;;
32399;SDS011;45045;45.440;9.178;2023-09-08T06:47:33;18.77;;;14.30;;
32399;SDS011;45045;45.440;9.178;2023-09-08T06:49:59;20.92;;;14.95;;
32399;SDS011;45045;45.440;9.178;2023-09-08T06:52:24;17.27;;;13.88;;
32399;SDS011;45045;45.440;9.178;2023-09-08T06:54:50;17.90;;;14.00;;
32399;SDS011;45045;45.440;9.178;2023-09-08T06:57:18;19.90;;;15.38;;
32399;SDS011;45045;45.440;9.178;2023-09-08T06:59:45;19.65;;;15.25;;
32399;SDS011;45045;45.440;9.178;2023-09-08T07:02:11;20.00;;;14.15;;
32399;SDS011;45045;45.440;9.178;2023-09-08T07:04:36;18.58;;;14.50;;
32399;SDS011;45045;45.440;9.178;2023-09-08T07:07:02;25.00;;;15.75;;
32399;SDS011;45045;45.440;9.178;2023-09-08T07:09:32;20.77;;;15.90;;
32399;SDS011;45045;45.440;9.178;2023-09-08T07:14:30;17.90;;;13.55;;
32399;SDS011;45045;45.440;9.178;2023-09-08T07:16:56;19.95;;;13.20;;
32399;SDS011;45045;45.440;9.178;2023-09-08T07:19:22;22.00;;;13.90;;
32399;SDS011;45045;45.440;9.178;2023-09-08T07:21:47;38.88;;;30.65;;
32399;SDS011;45045;45.440;9.178;2023-09-08T07:24:13;23.38;;;13.57;;
32399;SDS011;45045;45.440;9.178;2023-09-08T07:26:38;18.98;;;13.25;;
32399;SDS011;45045;45.440;9.178;2023-09-08T07:29:04;19.77;;;12.63;;
32399;SDS011;45045;45.440;9.178;2023-09-08T07:31:30;19.48;;;12.23;;
32399;SDS011;45045;45.440;9.178;2023-09-08T07:33:55;19.85;;;12.27;;
32399;SDS011;45045;45.440;9.178;2023-09-08T07:36:21;19.45;;;11.70;;
32399;SDS011;45045;45.440;9.178;2023-09-08T07:38:46;22.77;;;11.07;;
32399;SDS011;45045;45.440;9.178;2023-09-08T07:41:12;18.88;;;9.82;;
32399;SDS011;45045;45.440;9.178;2023-09-08T07:43:38;14.60;;;9.38;;
32399;SDS011;45045;45.440;9.178;2023-09-08T07:46:06;12.70;;;6.90;;
32399;SDS011;45045;45.440;9.178;2023-09-08T07:48:32;8.73;;;5.65;;
32399;SDS011;45045;45.440;9.178;2023-09-08T07:50:58;17.23;;;6.35;;
32399;SDS011;45045;45.440;9.178;2023-09-08T07:53:25;13.48;;;5.70;;
32399;SDS011;45045;45.440;9.178;2023-09-08T07:55:54;8.45;;;4.97;;
32399;SDS011;45045;45.440;9.178;2023-09-08T07:58:21;9.88;;;3.80;;
32399;SDS011;45045;45.440;9.178;2023-09-08T08:00:47;8.52;;;4.03;;
32399;SDS011;45045;45.440;9.178;2023-09-08T08:03:12;8.18;;;3.55;;
32399;SDS011;45045;45.440;9.178;2023-09-08T08:05:38;6.13;;;3.38;;
32399;SDS011;45045;45.440;9.178;2023-09-08T08:08:04;10.00;;;4.18;;
32399;SDS011;45045;45.440;9.178;2023-09-08T08:10:29;10.85;;;3.75;;
32399;SDS011;45045;45.440;9.178;2023-09-08T08:12:55;6.60;;;3.67;;
32399;SDS011;45045;45.440;9.178;2023-09-08T08:15:22;7.75;;;3.90;;
32399;SDS011;45045;45.440;9.178;2023-09-08T08:17:48;6.85;;;4.20;;
32399;SDS011;45045;45.440;9.178;2023-09-08T08:20:13;13.18;;;4.15;;
32399;SDS011;45045;45.440;9.178;2023-09-08T08:22:43;5.75;;;3.90;;
32399;SDS011;45045;45.440;9.178;2023-09-08T08:25:10;8.00;;;4.10;;
32399;SDS011;45045;45.440;9.178;2023-09-08T08:27:36;10.35;;;3.75;;
32399;SDS011;45045;45.440;9.178;2023-09-08T08:30:02;5.57;;;3.60;;
32399;SDS011;45045;45.440;9.178;2023-09-08T08:32:28;7.50;;;3.97;;
32399;SDS011;45045;45.440;9.178;2023-09-08T08:34:54;8.52;;;4.07;;
32399;SDS011;45045;45.440;9.178;2023-09-08T08:37:20;8.20;;;3.80;;
32399;SDS011;45045;45.440;9.178;2023-09-08T08:39:45;7.55;;;3.70;;
32399;SDS011;45045;45.440;9.178;2023-09-08T08:42:11;7.32;;;3.30;;
32399;SDS011;45045;45.440;9.178;2023-09-08T08:44:37;7.22;;;3.65;;
32399;SDS011;45045;45.440;9.178;2023-09-08T08:47:05;6.50;;;3.83;;
32399;SDS011;45045;45.440;9.178;2023-09-08T08:49:32;7.95;;;4.05;;
32399;SDS011;45045;45.440;9.178;2023-09-08T08:51:59;5.95;;;3.47;;
32399;SDS011;45045;45.440;9.178;2023-09-08T08:54:28;6.20;;;3.80;;
32399;SDS011;45045;45.440;9.178;2023-09-08T08:56:55;7.95;;;3.90;;
32399;SDS011;45045;45.440;9.178;2023-09-08T08:59:21;8.48;;;4.03;;
32399;SDS011;45045;45.440;9.178;2023-09-08T09:01:48;9.68;;;4.50;;
32399;SDS011;45045;45.440;9.178;2023-09-08T09:04:14;9.38;;;4.25;;
32399;SDS011;45045;45.440;9.178;2023-09-08T09:06:41;9.35;;;4.25;;
32399;SDS011;45045;45.440;9.178;2023-09-08T09:09:07;6.25;;;4.15;;
32399;SDS011;45045;45.440;9.178;2023-09-08T09:11:35;8.05;;;4.30;;
32399;SDS011;45045;45.440;9.178;2023-09-08T09:14:01;8.73;;;4.22;;
32399;SDS011;45045;45.440;9.178;2023-09-08T09:16:27;8.93;;;4.18;;
32399;SDS011;45045;45.440;9.178;2023-09-08T09:18:54;6.88;;;4.20;;
32399;SDS011;45045;45.440;9.178;2023-09-08T09:21:24;9.30;;;4.03;;
32399;SDS011;45045;45.440;9.178;2023-09-08T09:24:05;6.28;;;3.78;;
32399;SDS011;45045;45.440;9.178;2023-09-08T09:26:31;7.68;;;3.97;;
32399;SDS011;45045;45.440;9.178;2023-09-08T09:28:57;6.75;;;4.40;;
32399;SDS011;45045;45.440;9.178;2023-09-08T09:31:24;6.32;;;4.38;;
32399;SDS011;45045;45.440;9.178;2023-09-08T09:34:03;10.50;;;4.30;;
32399;SDS011;45045;45.440;9.178;2023-09-08T09:36:30;6.30;;;4.47;;
32399;SDS011;45045;45.440;9.178;2023-09-08T09:38:59;7.45;;;4.30;;
32399;SDS011;45045;45.440;9.178;2023-09-08T09:41:27;7.28;;;4.90;;
32399;SDS011;45045;45.440;9.178;2023-09-08T09:43:54;6.88;;;4.50;;
32399;SDS011;45045;45.440;9.178;2023-09-08T09:46:21;10.07;;;5.85;;
32399;SDS011;45045;45.440;9.178;2023-09-08T09:48:50;7.88;;;4.30;;
32399;SDS011;45045;45.440;9.178;2023-09-08T09:51:19;9.40;;;5.40;;
32399;SDS011;45045;45.440;9.178;2023-09-08T09:53:45;8.30;;;5.18;;
32399;SDS011;45045;45.440;9.178;2023-09-08T09:56:13;8.40;;;4.65;;
32399;SDS011;45045;45.440;9.178;2023-09-08T09:58:39;10.23;;;4.47;;
32399;SDS011;45045;45.440;9.178;2023-09-08T10:01:07;8.77;;;4.68;;
32399;SDS011;45045;45.440;9.178;2023-09-08T10:03:36;8.20;;;4.32;;
32399;SDS011;45045;45.440;9.178;2023-09-08T10:06:03;6.28;;;3.90;;
32399;SDS011;45045;45.440;9.178;2023-09-08T10:08:30;19.38;;;10.60;;
32399;SDS011;45045;45.440;9.178;2023-09-08T10:10:59;9.90;;;6.03;;
32399;SDS011;45045;45.440;9.178;2023-09-08T10:13:30;12.20;;;5.03;;
32399;SDS011;45045;45.440;9.178;2023-09-08T10:15:58;8.10;;;4.70;;
32399;SDS011;45045;45.440;9.178;2023-09-08T10:18:27;10.95;;;4.75;;
32399;SDS011;45045;45.440;9.178;2023-09-08T10:20:55;9.02;;;3.75;;
32399;SDS011;45045;45.440;9.178;2023-09-08T10:23:41;6.87;;;4.07;;
32399;SDS011;45045;45.440;9.178;2023-09-08T10:26:09;7.72;;;3.72;;
32399;SDS011;45045;45.440;9.178;2023-09-08T10:28:36;7.18;;;3.50;;
32399;SDS011;45045;45.440;9.178;2023-09-08T10:31:03;8.50;;;3.90;;
32399;SDS011;45045;45.440;9.178;2023-09-08T10:33:30;8.68;;;4.20;;
32399;SDS011;45045;45.440;9.178;2023-09-08T10:35:57;11.43;;;5.10;;
32399;SDS011;45045;45.440;9.178;2023-09-08T10:40:51;9.93;;;5.60;;
32399;SDS011;45045;45.440;9.178;2023-09-08T10:43:18;8.95;;;4.65;;
32399;SDS011;45045;45.440;9.178;2023-09-08T10:45:48;5.65;;;4.07;;
32399;SDS011;45045;45.440;9.178;2023-09-08T10:48:14;6.95;;;4.10;;
32399;SDS011;45045;45.440;9.178;2023-09-08T10:50:40;9.63;;;4.05;;
32399;SDS011;45045;45.440;9.178;2023-09-08T10:53:16;6.70;;;4.30;;
32399;SDS011;45045;45.440;9.178;2023-09-08T10:55:47;6.68;;;4.50;;
32399;SDS011;45045;45.440;9.178;2023-09-08T10:58:30;7.65;;;3.65;;
32399;SDS011;45045;45.440;9.178;2023-09-08T11:01:01;8.10;;;3.88;;
32399;SDS011;45045;45.440;9.178;2023-09-08T11:06:07;8.77;;;3.72;;
32399;SDS011;45045;45.440;9.178;2023-09-08T11:08:36;5.78;;;3.63;;
32399;SDS011;45045;45.440;9.178;2023-09-08T11:11:12;6.28;;;3.88;;
32399;SDS011;45045;45.440;9.178;2023-09-08T11:13:38;7.80;;;4.78;;
32399;SDS011;45045;45.440;9.178;2023-09-08T11:16:10;7.85;;;4.57;;
32399;SDS011;45045;45.440;9.178;2023-09-08T11:18:36;7.95;;;4.88;;
32399;SDS011;45045;45.440;9.178;2023-09-08T11:21:02;5.97;;;3.78;;
32399;SDS011;45045;45.440;9.178;2023-09-08T11:23:32;7.07;;;4.15;;
32399;SDS011;45045;45.440;9.178;2023-09-08T11:25:59;9.43;;;3.97;;
32399;SDS011;45045;45.440;9.178;2023-09-08T11:28:26;8.32;;;4.07;;
32399;SDS011;45045;45.440;9.178;2023-09-08T11:30:53;6.72;;;4.05;;
32399;SDS011;45045;45.440;9.178;2023-09-08T11:33:20;6.85;;;4.35;;
32399;SDS011;45045;45.440;9.178;2023-09-08T11:35:50;6.32;;;4.95;;
32399;SDS011;45045;45.440;9.178;2023-09-08T11:38:17;7.70;;;4.93;;
32399;SDS011;45045;45.440;9.178;2023-09-08T11:40:43;7.00;;;4.20;;
32399;SDS011;45045;45.440;9.178;2023-09-08T11:43:09;7.20;;;4.53;;
32399;SDS011;45045;45.440;9.178;2023-09-08T11:45:36;9.68;;;3.80;;
32399;SDS011;45045;45.440;9.178;2023-09-08T11:48:05;7.43;;;4.47;;
32399;SDS011;45045;45.440;9.178;2023-09-08T11:50:31;8.23;;;5.63;;
32399;SDS011;45045;45.440;9.178;2023-09-08T11:52:57;7.75;;;4.32;;
32399;SDS011;45045;45.440;9.178;2023-09-08T11:55:24;11.63;;;4.40;;
32399;SDS011;45045;45.440;9.178;2023-09-08T11:57:52;9.77;;;4.35;;
32399;SDS011;45045;45.440;9.178;2023-09-08T12:00:27;5.97;;;4.10;;
32399;SDS011;45045;45.440;9.178;2023-09-08T12:02:54;10.75;;;4.10;;
32399;SDS011;45045;45.440;9.178;2023-09-08T12:05:24;7.90;;;4.07;;
32399;SDS011;45045;45.440;9.178;2023-09-08T12:07:51;7.27;;;4.10;;
32399;SDS011;45045;45.440;9.178;2023-09-08T12:10:18;7.63;;;4.45;;
32399;SDS011;45045;45.440;9.178;2023-09-08T12:12:44;8.77;;;4.60;;
32399;SDS011;45045;45.440;9.178;2023-09-08T12:15:10;9.40;;;3.70;;
32399;SDS011;45045;45.440;9.178;2023-09-08T12:17:49;6.85;;;4.10;;
32399;SDS011;45045;45.440;9.178;2023-09-08T12:20:15;7.90;;;4.20;;
32399;SDS011;45045;45.440;9.178;2023-09-08T12:22:50;7.40;;;4.15;;
32399;SDS011;45045;45.440;9.178;2023-09-08T12:25:16;8.93;;;5.18;;
32399;SDS011;45045;45.440;9.178;2023-09-08T12:27:43;8.75;;;4.20;;
32399;SDS011;45045;45.440;9.178;2023-09-08T12:30:15;7.85;;;4.53;;
32399;SDS011;45045;45.440;9.178;2023-09-08T12:32:46;7.10;;;4.82;;
32399;SDS011;45045;45.440;9.178;2023-09-08T12:35:18;7.78;;;4.60;;
32399;SDS011;45045;45.440;9.178;2023-09-08T12:37:46;9.23;;;4.28;;
32399;SDS011;45045;45.440;9.178;2023-09-08T12:40:12;8.77;;;4.32;;
32399;SDS011;45045;45.440;9.178;2023-09-08T12:42:38;7.85;;;4.10;;
32399;SDS011;45045;45.440;9.178;2023-09-08T12:45:04;7.35;;;4.00;;
32399;SDS011;45045;45.440;9.178;2023-09-08T12:47:30;6.93;;;3.78;;
32399;SDS011;45045;45.440;9.178;2023-09-08T12:49:56;10.20;;;4.95;;
32399;SDS011;45045;45.440;9.178;2023-09-08T12:52:21;11.10;;;4.55;;
32399;SDS011;45045;45.440;9.178;2023-09-08T12:54:47;10.68;;;4.70;;
32399;SDS011;45045;45.440;9.178;2023-09-08T12:57:13;7.93;;;5.13;;
32399;SDS011;45045;45.440;9.178;2023-09-08T12:59:38;9.05;;;4.75;;
32399;SDS011;45045;45.440;9.178;2023-09-08T13:02:04;9.43;;;4.90;;
32399;SDS011;45045;45.440;9.178;2023-09-08T13:04:29;7.10;;;4.80;;
32399;SDS011;45045;45.440;9.178;2023-09-08T13:06:55;9.07;;;4.18;;
32399;SDS011;45045;45.440;9.178;2023-09-08T13:09:23;8.82;;;6.47;;
32399;SDS011;45045;45.440;9.178;2023-09-08T13:11:49;9.77;;;4.85;;
32399;SDS011;45045;45.440;9.178;2023-09-08T13:14:16;6.43;;;4.20;;
32399;SDS011;45045;45.440;9.178;2023-09-08T13:16:42;6.43;;;4.63;;
32399;SDS011;45045;45.440;9.178;2023-09-08T13:19:07;9.25;;;7.80;;
32399;SDS011;45045;45.440;9.178;2023-09-08T13:21:33;7.85;;;5.10;;
32399;SDS011;45045;45.440;9.178;2023-09-08T13:23:58;7.28;;;4.55;;
32399;SDS011;45045;45.440;9.178;2023-09-08T13:26:24;8.27;;;4.57;;
32399;SDS011;45045;45.440;9.178;2023-09-08T13:28:50;10.52;;;4.88;;
32399;SDS011;45045;45.440;9.178;2023-09-08T13:31:17;7.35;;;4.55;;
32399;SDS011;45045;45.440;9.178;2023-09-08T13:33:43;9.20;;;4.95;;
32399;SDS011;45045;45.440;9.178;2023-09-08T13:36:08;6.80;;;4.43;;
32399;SDS011;45045;45.440;9.178;2023-09-08T13:38:34;10.48;;;4.15;;
32399;SDS011;45045;45.440;9.178;2023-09-08T13:41:00;9.10;;;5.53;;
32399;SDS011;45045;45.440;9.178;2023-09-08T13:43:26;9.95;;;5.78;;
32399;SDS011;45045;45.440;9.178;2023-09-08T13:45:52;9.15;;;5.68;;
32399;SDS011;45045;45.440;9.178;2023-09-08T13:48:17;9.13;;;5.85;;
32399;SDS011;45045;45.440;9.178;2023-09-08T13:50:43;7.60;;;5.20;;
32399;SDS011;45045;45.440;9.178;2023-09-08T13:53:08;10.63;;;4.38;;
32399;SDS011;45045;45.440;9.178;2023-09-08T13:55:34;8.35;;;4.93;;
32399;SDS011;45045;45.440;9.178;2023-09-08T13:58:00;11.63;;;7.60;;
32399;SDS011;45045;45.440;9.178;2023-09-08T14:00:25;7.80;;;5.07;;
32399;SDS011;45045;45.440;9.178;2023-09-08T14:02:51;10.18;;;4.88;;
32399;SDS011;45045;45.440;9.178;2023-09-08T14:05:17;8.23;;;4.93;;
32399;SDS011;45045;45.440;9.178;2023-09-08T14:07:42;8.23;;;5.35;;
32399;SDS011;45045;45.440;9.178;2023-09-08T14:10:08;8.45;;;5.03;;
32399;SDS011;45045;45.440;9.178;2023-09-08T14:12:34;11.82;;;5.18;;
32399;SDS011;45045;45.440;9.178;2023-09-08T14:15:00;7.22;;;4.13;;
32399;SDS011;45045;45.440;9.178;2023-09-08T14:17:25;10.18;;;4.20;;
32399;SDS011;45045;45.440;9.178;2023-09-08T14:19:51;7.57;;;4.65;;
32399;SDS011;45045;45.440;9.178;2023-09-08T14:22:17;7.38;;;4.55;;
32399;SDS011;45045;45.440;9.178;2023-09-08T14:24:42;9.88;;;4.35;;
32399;SDS011;45045;45.440;9.178;2023-09-08T14:27:08;7.05;;;4.90;;
32399;SDS011;45045;45.440;9.178;2023-09-08T14:29:34;11.02;;;4.53;;
32399;SDS011;45045;45.440;9.178;2023-09-08T14:31:59;10.27;;;4.95;;
32399;SDS011;45045;45.440;9.178;2023-09-08T14:34:25;7.38;;;4.55;;
32399;SDS011;45045;45.440;9.178;2023-09-08T14:36:50;7.10;;;4.40;;
32399;SDS011;45045;45.440;9.178;2023-09-08T14:39:16;7.97;;;5.03;;
32399;SDS011;45045;45.440;9.178;2023-09-08T14:41:44;7.70;;;4.30;;
32399;SDS011;45045;45.440;9.178;2023-09-08T14:44:10;8.60;;;4.40;;
32399;SDS011;45045;45.440;9.178;2023-09-08T14:46:35;6.88;;;4.30;;
32399;SDS011;45045;45.440;9.178;2023-09-08T14:49:01;7.35;;;4.07;;